Waterfall, Pennsylvania
Current Conditions -  °F | °C
As of 9:53 PM on Friday 19 Dec 2014 (Local Time) from KAOO Reporting Station
Scattered Clouds Scattered Clouds  
Wind Chill: 17°   Ceiling: Unl
Heat Index: 26°   Visibility: 10mi
Dew Point: 18°   Wind: 9mph
Humidity: 71%   Direction: 330°NNW
Pressure: 30.22"   Gusts: NA
Location:  40.13°N, 78.06°W
Report Text: KAOO 200253Z AUTO 33008KT 10SM SCT025 M03/M08 A3022 RMK AO2 SLP252 T10331078 51014
Loading
Personal Weather Stations






























Interactive Weather Map New forecast layout! Learn more

10-Day Weather Forecast

Advertisements
Track Severe Weather on mobile